createdAt,value
2017-09-30T00:02:08.382Z,14.80
2017-09-30T00:04:34.652Z,14.80
2017-09-30T00:07:00.914Z,14.80
2017-09-30T00:09:27.966Z,14.80
2017-09-30T00:11:56.042Z,14.80
2017-09-30T00:14:22.305Z,14.70
2017-09-30T00:16:49.338Z,14.80
2017-09-30T00:19:15.621Z,14.70
2017-09-30T00:21:41.876Z,14.70
2017-09-30T00:24:08.925Z,14.70
2017-09-30T00:26:35.198Z,14.70
2017-09-30T00:29:01.474Z,14.70
2017-09-30T00:31:27.813Z,14.70
2017-09-30T00:33:54.098Z,14.60
2017-09-30T00:36:20.374Z,14.60
2017-09-30T00:38:48.479Z,14.60
2017-09-30T00:41:14.794Z,14.50
2017-09-30T00:43:41.082Z,14.50
2017-09-30T00:46:07.398Z,14.50
2017-09-30T00:48:33.690Z,14.40
2017-09-30T00:51:00.884Z,14.40
2017-09-30T00:53:27.238Z,14.50
2017-09-30T00:55:53.515Z,14.50
2017-09-30T00:58:19.854Z,14.50
2017-09-30T01:00:46.899Z,14.40
2017-09-30T01:03:13.164Z,14.40
2017-09-30T01:05:39.447Z,14.40
2017-09-30T01:08:05.770Z,14.40
2017-09-30T01:10:32.062Z,14.40
2017-09-30T01:12:59.114Z,14.40
2017-09-30T01:15:25.442Z,14.40
2017-09-30T01:17:51.746Z,14.50
2017-09-30T01:20:18.050Z,14.50
2017-09-30T01:22:44.360Z,14.50
2017-09-30T01:25:11.382Z,14.50
2017-09-30T01:27:38.455Z,14.50
2017-09-30T01:30:05.849Z,14.40
2017-09-30T01:32:33.208Z,14.40
2017-09-30T01:35:00.245Z,14.30
2017-09-30T01:37:26.566Z,14.30
2017-09-30T01:39:52.864Z,14.30
2017-09-30T01:42:19.213Z,14.30
2017-09-30T01:44:45.542Z,14.30
2017-09-30T01:47:11.878Z,14.30
2017-09-30T01:49:38.197Z,14.30
2017-09-30T01:52:05.290Z,14.20
2017-09-30T01:54:31.634Z,14.20
2017-09-30T01:56:57.934Z,14.20
2017-09-30T01:59:24.282Z,14.10
2017-09-30T02:01:50.562Z,14.10
2017-09-30T02:04:16.853Z,14.10
2017-09-30T02:06:43.177Z,14.10
2017-09-30T02:09:09.477Z,14.10
2017-09-30T02:11:35.798Z,14.10
2017-09-30T02:14:02.099Z,14.10
2017-09-30T02:16:28.401Z,14.10
2017-09-30T02:18:55.406Z,14.00
2017-09-30T02:21:22.438Z,14.00
2017-09-30T02:23:48.706Z,14.00
2017-09-30T02:26:14.966Z,14.10
2017-09-30T02:28:42.006Z,14.00
2017-09-30T02:31:08.267Z,14.00
2017-09-30T02:33:34.546Z,14.00
2017-09-30T02:36:00.838Z,14.00
2017-09-30T02:38:27.086Z,14.00
2017-09-30T02:40:53.370Z,14.00
2017-09-30T02:43:20.382Z,13.90
2017-09-30T02:45:46.650Z,13.90
2017-09-30T02:48:12.910Z,13.90
2017-09-30T02:50:39.957Z,13.90
2017-09-30T02:53:06.231Z,13.90
2017-09-30T02:55:32.507Z,13.90
2017-09-30T02:57:58.793Z,14.00
2017-09-30T03:00:25.051Z,14.00
2017-09-30T03:02:51.310Z,14.00
2017-09-30T03:05:18.379Z,14.00
2017-09-30T03:07:45.374Z,14.00
2017-09-30T03:10:11.653Z,14.00
2017-09-30T03:12:37.926Z,14.10
2017-09-30T03:15:04.930Z,14.20
2017-09-30T03:17:31.198Z,14.20
2017-09-30T03:19:57.467Z,14.20
2017-09-30T03:22:23.742Z,14.20
2017-09-30T03:24:50.005Z,14.20
2017-09-30T03:27:16.298Z,14.20
2017-09-30T03:29:42.550Z,14.20
2017-09-30T03:32:09.575Z,14.30
2017-09-30T03:34:35.842Z,14.30
2017-09-30T03:37:02.118Z,14.20
2017-09-30T03:39:28.382Z,14.20
2017-09-30T03:41:55.398Z,14.20
2017-09-30T03:44:21.689Z,14.20
2017-09-30T03:46:47.978Z,14.20
2017-09-30T03:49:14.273Z,14.20
2017-09-30T03:51:40.522Z,14.20
2017-09-30T03:54:06.798Z,14.30
2017-09-30T03:56:33.814Z,14.30
2017-09-30T03:59:00.082Z,14.20
2017-09-30T04:01:26.365Z,14.30
2017-09-30T04:03:52.638Z,14.30
2017-09-30T04:06:18.914Z,14.30
2017-09-30T04:08:45.178Z,14.30
2017-09-30T04:11:11.497Z,14.20
2017-09-30T04:13:37.798Z,14.20
2017-09-30T04:16:04.059Z,14.30
2017-09-30T04:18:30.374Z,14.30
2017-09-30T04:20:57.378Z,14.40
2017-09-30T04:23:23.640Z,14.30
2017-09-30T04:25:49.937Z,14.40
2017-09-30T04:28:16.210Z,14.30
2017-09-30T04:30:42.502Z,14.30
2017-09-30T04:33:08.783Z,14.30
2017-09-30T04:35:35.062Z,14.30
2017-09-30T04:38:01.318Z,14.30
2017-09-30T04:40:27.626Z,14.30
2017-09-30T04:42:53.905Z,14.30
2017-09-30T04:45:20.206Z,14.30
2017-09-30T04:47:47.232Z,14.20
2017-09-30T04:50:13.501Z,14.20
2017-09-30T04:52:39.762Z,14.30
2017-09-30T04:55:06.778Z,14.30
2017-09-30T04:57:33.081Z,14.30
2017-09-30T04:59:59.338Z,14.30
2017-09-30T05:02:26.415Z,14.40
2017-09-30T05:04:52.693Z,14.30
2017-09-30T05:07:19.698Z,14.40
2017-09-30T05:09:46.758Z,14.40
2017-09-30T05:12:13.746Z,14.40
2017-09-30T05:14:40.022Z,14.30
2017-09-30T05:17:06.325Z,14.40
2017-09-30T05:19:33.307Z,14.40
2017-09-30T05:21:59.585Z,14.40
2017-09-30T05:24:25.898Z,14.40
2017-09-30T05:26:52.142Z,14.30
2017-09-30T05:29:18.418Z,14.30
2017-09-30T05:31:45.694Z,14.30
2017-09-30T05:34:11.939Z,14.20
2017-09-30T05:36:38.239Z,14.30
2017-09-30T05:39:05.270Z,14.40
2017-09-30T05:41:31.542Z,14.40
2017-09-30T05:43:57.794Z,14.50
2017-09-30T05:46:24.834Z,14.40
2017-09-30T05:48:51.122Z,14.40
2017-09-30T05:51:17.394Z,14.40
2017-09-30T05:53:44.750Z,14.40
2017-09-30T05:56:11.010Z,14.40
2017-09-30T05:58:37.321Z,14.50
2017-09-30T06:01:04.350Z,14.50
2017-09-30T06:03:31.653Z,14.40
2017-09-30T06:05:57.938Z,14.50
2017-09-30T06:08:24.214Z,14.50
2017-09-30T06:10:50.499Z,14.60
2017-09-30T06:13:16.782Z,14.60
2017-09-30T06:15:43.070Z,14.60
2017-09-30T06:18:09.326Z,14.60
2017-09-30T06:20:35.639Z,14.70
2017-09-30T06:23:01.922Z,14.70
2017-09-30T06:25:28.945Z,14.80
2017-09-30T06:27:55.194Z,14.80
2017-09-30T06:30:21.461Z,14.90
2017-09-30T06:32:47.758Z,15.00
2017-09-30T06:35:14.082Z,15.10
2017-09-30T06:37:40.410Z,15.10
2017-09-30T06:40:06.674Z,15.20
2017-09-30T06:42:32.979Z,15.30
2017-09-30T06:44:59.299Z,15.30
2017-09-30T06:47:25.566Z,15.30
2017-09-30T06:49:51.842Z,15.40
2017-09-30T06:52:18.130Z,15.40
2017-09-30T06:54:44.414Z,15.50
2017-09-30T06:57:10.675Z,15.50
2017-09-30T06:59:36.955Z,15.60
2017-09-30T07:02:03.222Z,15.60
2017-09-30T07:04:29.486Z,15.60
2017-09-30T07:06:55.834Z,15.60
2017-09-30T07:09:22.122Z,15.60
2017-09-30T07:11:48.422Z,15.60
2017-09-30T07:14:14.694Z,15.70
2017-09-30T07:16:40.962Z,15.70
2017-09-30T07:19:07.250Z,15.70
2017-09-30T07:21:34.254Z,15.80
2017-09-30T07:24:00.530Z,15.80
2017-09-30T07:26:26.847Z,15.90
2017-09-30T07:28:53.151Z,15.90
2017-09-30T07:31:20.446Z,15.90
2017-09-30T07:33:46.730Z,16.00
2017-09-30T07:36:13.009Z,16.00
2017-09-30T07:38:39.263Z,16.10
2017-09-30T07:41:05.535Z,16.10
2017-09-30T07:43:31.814Z,16.20
2017-09-30T07:45:58.109Z,16.20
2017-09-30T07:48:24.361Z,16.30
2017-09-30T07:50:50.630Z,16.30
2017-09-30T07:53:16.899Z,16.30
2017-09-30T07:55:43.911Z,16.30
2017-09-30T07:58:10.945Z,16.20
2017-09-30T08:00:37.210Z,16.30
2017-09-30T08:03:03.479Z,16.20
2017-09-30T08:05:29.753Z,16.30
2017-09-30T08:07:56.022Z,16.40
2017-09-30T08:10:22.306Z,16.60
2017-09-30T08:12:48.585Z,16.60
2017-09-30T08:15:14.855Z,16.70
2017-09-30T08:17:41.840Z,16.80
2017-09-30T08:20:08.118Z,16.80
2017-09-30T08:22:34.390Z,16.80
2017-09-30T08:25:00.650Z,17.00
2017-09-30T08:27:26.943Z,17.20
2017-09-30T08:29:54.061Z,17.70
2017-09-30T08:32:20.310Z,17.70
2017-09-30T08:34:46.598Z,18.40
2017-09-30T08:37:13.618Z,17.90
2017-09-30T08:39:39.882Z,17.90
2017-09-30T08:42:06.194Z,17.80
2017-09-30T08:44:32.466Z,18.10
2017-09-30T08:46:59.482Z,18.40
2017-09-30T08:49:26.517Z,18.40
2017-09-30T08:51:52.795Z,18.30
2017-09-30T08:54:19.074Z,18.80
2017-09-30T08:56:45.381Z,19.10
2017-09-30T08:59:12.414Z,18.70
2017-09-30T09:01:38.666Z,18.70
2017-09-30T09:04:04.975Z,18.60
2017-09-30T09:06:31.230Z,18.70
2017-09-30T09:08:57.518Z,18.60
2017-09-30T09:11:23.798Z,18.60
2017-09-30T09:13:50.515Z,18.60
2017-09-30T09:16:16.782Z,18.60
2017-09-30T09:18:43.050Z,18.50
2017-09-30T09:21:09.326Z,18.50
2017-09-30T09:23:35.576Z,18.50
2017-09-30T09:26:01.906Z,18.40
2017-09-30T09:28:29.154Z,18.40
2017-09-30T09:30:55.409Z,18.30
2017-09-30T09:33:21.698Z,18.40
2017-09-30T09:35:49.006Z,18.40
2017-09-30T09:38:15.286Z,18.40
2017-09-30T09:40:41.578Z,18.50
2017-09-30T09:43:07.849Z,18.50
2017-09-30T09:45:34.110Z,18.80
2017-09-30T09:48:01.145Z,19.00
2017-09-30T09:50:27.382Z,19.00
2017-09-30T09:52:53.641Z,19.20
2017-09-30T09:55:20.946Z,19.30
2017-09-30T09:57:47.206Z,19.20
2017-09-30T10:00:13.479Z,19.30
2017-09-30T10:02:39.754Z,19.30
2017-09-30T10:05:06.782Z,19.30
2017-09-30T10:07:33.028Z,19.30
2017-09-30T10:09:59.327Z,19.30
2017-09-30T10:12:25.605Z,19.30
2017-09-30T10:14:51.861Z,19.20
2017-09-30T10:17:18.157Z,19.40
2017-09-30T10:19:45.138Z,19.60
2017-09-30T10:22:11.414Z,19.50
2017-09-30T10:24:37.831Z,19.60
2017-09-30T10:27:04.106Z,19.70
2017-09-30T10:29:30.366Z,19.70
2017-09-30T10:31:56.674Z,19.60
2017-09-30T10:34:22.930Z,19.50
2017-09-30T10:36:49.190Z,19.40
2017-09-30T10:39:16.569Z,19.50
2017-09-30T10:41:42.830Z,19.60
2017-09-30T10:44:09.841Z,19.60
2017-09-30T10:46:36.850Z,19.60
2017-09-30T10:49:03.133Z,19.50
2017-09-30T10:51:29.390Z,19.60
2017-09-30T10:53:55.662Z,19.60
2017-09-30T10:56:21.926Z,19.80
2017-09-30T10:58:48.179Z,20.00
2017-09-30T11:01:14.480Z,20.30
2017-09-30T11:03:41.474Z,20.20
2017-09-30T11:06:07.746Z,20.10
2017-09-30T11:08:34.030Z,20.20
2017-09-30T11:11:01.058Z,19.90
2017-09-30T11:13:27.319Z,19.90
2017-09-30T11:15:53.607Z,20.00
2017-09-30T11:18:19.886Z,20.10
2017-09-30T11:20:46.148Z,20.20
2017-09-30T11:23:12.436Z,20.20
2017-09-30T11:25:39.450Z,20.20
2017-09-30T11:28:05.714Z,20.20
2017-09-30T11:30:33.058Z,20.20
2017-09-30T11:32:59.314Z,20.10
2017-09-30T11:35:25.575Z,20.10
2017-09-30T11:37:51.838Z,20.10
2017-09-30T11:40:18.090Z,20.40
2017-09-30T11:42:44.369Z,20.60
2017-09-30T11:45:11.766Z,21.00
2017-09-30T11:47:38.014Z,20.90
2017-09-30T11:50:04.346Z,20.70
2017-09-30T11:52:31.330Z,20.50
2017-09-30T11:54:57.586Z,20.50
2017-09-30T11:57:24.002Z,20.30
2017-09-30T11:59:50.254Z,20.30
2017-09-30T12:02:16.543Z,20.10
2017-09-30T12:04:43.570Z,20.00
2017-09-30T12:07:10.578Z,20.00
2017-09-30T12:09:36.853Z,19.90
2017-09-30T12:12:03.139Z,19.90
2017-09-30T12:14:29.426Z,19.90
2017-09-30T12:16:56.438Z,20.30
2017-09-30T12:19:23.491Z,20.40
2017-09-30T12:21:50.490Z,20.40
2017-09-30T12:24:16.752Z,20.30
2017-09-30T12:26:43.046Z,20.50
2017-09-30T12:29:09.326Z,20.60
2017-09-30T12:31:35.730Z,20.60
2017-09-30T12:34:02.027Z,20.60
2017-09-30T12:36:28.293Z,20.70
2017-09-30T12:38:54.550Z,20.60
2017-09-30T12:41:20.847Z,20.50
2017-09-30T12:43:47.106Z,20.30
2017-09-30T12:46:13.377Z,20.30
2017-09-30T12:48:39.665Z,20.40
2017-09-30T12:51:05.919Z,20.40
2017-09-30T12:53:32.201Z,20.40
2017-09-30T12:55:58.470Z,20.40
2017-09-30T12:58:24.774Z,20.30
2017-09-30T13:00:51.078Z,20.40
2017-09-30T13:03:17.398Z,20.40
2017-09-30T13:05:43.671Z,20.40
2017-09-30T13:08:09.915Z,20.40
2017-09-30T13:10:36.226Z,20.40
2017-09-30T13:13:02.476Z,20.30
2017-09-30T13:15:28.751Z,20.20
2017-09-30T13:17:55.054Z,20.20
2017-09-30T13:20:22.050Z,20.10
2017-09-30T13:22:48.334Z,20.10
2017-09-30T13:25:14.613Z,20.00
2017-09-30T13:27:41.622Z,19.90
2017-09-30T13:30:08.640Z,19.80
2017-09-30T13:32:34.922Z,19.80
2017-09-30T13:35:01.202Z,19.80
2017-09-30T13:37:27.492Z,19.70
2017-09-30T13:39:53.767Z,19.70
2017-09-30T13:42:20.026Z,19.80
2017-09-30T13:44:47.078Z,19.60
2017-09-30T13:47:14.086Z,19.30
2017-09-30T13:49:40.339Z,19.30
2017-09-30T13:52:06.651Z,18.80
2017-09-30T13:54:32.933Z,18.40
2017-09-30T13:56:59.197Z,18.00
2017-09-30T13:59:25.473Z,17.70
2017-09-30T14:01:52.477Z,17.40
2017-09-30T14:04:19.470Z,17.00
2017-09-30T14:06:45.769Z,17.00
2017-09-30T14:09:12.063Z,17.00
2017-09-30T14:11:38.350Z,16.90
2017-09-30T14:14:05.384Z,16.50
2017-09-30T14:16:31.687Z,16.50
2017-09-30T14:18:57.970Z,16.40
2017-09-30T14:21:24.270Z,16.30
2017-09-30T14:23:50.582Z,16.20
2017-09-30T14:26:16.879Z,16.10
2017-09-30T14:28:43.174Z,16.00
2017-09-30T14:31:09.511Z,15.90
2017-09-30T14:33:35.932Z,15.90
2017-09-30T14:36:03.138Z,15.80
2017-09-30T14:38:30.806Z,15.70
2017-09-30T14:40:58.041Z,15.70
2017-09-30T14:43:24.578Z,15.50
2017-09-30T14:45:50.877Z,15.50
2017-09-30T14:48:17.371Z,15.40
2017-09-30T14:50:43.851Z,15.30
2017-09-30T14:53:10.183Z,15.30
2017-09-30T14:55:36.458Z,15.30
2017-09-30T14:58:02.896Z,15.20
2017-09-30T15:00:29.208Z,15.10
2017-09-30T15:02:56.100Z,15.00
2017-09-30T15:05:22.560Z,14.80
2017-09-30T15:07:48.957Z,14.80
2017-09-30T15:10:15.430Z,14.70
2017-09-30T15:12:41.973Z,14.60
2017-09-30T15:15:08.595Z,14.60
2017-09-30T15:17:34.989Z,14.50
2017-09-30T15:20:01.336Z,14.40
2017-09-30T15:22:27.646Z,14.40
2017-09-30T15:24:53.914Z,14.40
2017-09-30T15:27:20.243Z,14.40
2017-09-30T15:29:46.567Z,14.20
2017-09-30T15:32:13.720Z,14.30
2017-09-30T15:34:40.063Z,14.30
2017-09-30T15:37:06.459Z,14.30
2017-09-30T15:39:32.811Z,14.20
2017-09-30T15:41:59.094Z,14.10
2017-09-30T15:44:25.423Z,14.10
2017-09-30T15:46:51.678Z,14.00
2017-09-30T15:49:18.714Z,14.00
2017-09-30T15:51:44.990Z,14.00
2017-09-30T15:54:11.265Z,13.90
2017-09-30T15:56:37.594Z,13.90
2017-09-30T15:59:03.881Z,13.90
2017-09-30T16:01:30.937Z,14.00
2017-09-30T16:03:57.263Z,13.90
2017-09-30T16:06:23.526Z,14.00
2017-09-30T16:08:49.794Z,13.90
2017-09-30T16:11:16.084Z,13.90
2017-09-30T16:13:42.523Z,14.00
2017-09-30T16:16:08.818Z,13.90
2017-09-30T16:18:35.144Z,13.90
2017-09-30T16:21:01.441Z,13.90
2017-09-30T16:23:27.712Z,13.80
2017-09-30T16:25:54.768Z,13.70
2017-09-30T16:28:21.034Z,13.70
2017-09-30T16:30:48.033Z,13.70
2017-09-30T16:33:14.568Z,13.70
2017-09-30T16:35:41.031Z,13.70
2017-09-30T16:38:08.202Z,13.60
2017-09-30T16:40:34.704Z,13.60
2017-09-30T16:43:01.650Z,13.60
2017-09-30T16:45:28.295Z,13.70
2017-09-30T16:47:54.935Z,13.70
2017-09-30T16:50:21.251Z,13.70
2017-09-30T16:52:47.566Z,13.70
2017-09-30T16:55:14.196Z,13.60
2017-09-30T16:57:41.279Z,13.60
2017-09-30T17:00:08.207Z,13.50
2017-09-30T17:02:34.862Z,13.50
2017-09-30T17:05:01.992Z,13.50
2017-09-30T17:07:28.677Z,13.50
2017-09-30T17:09:55.886Z,13.50
2017-09-30T17:12:22.235Z,13.50
2017-09-30T17:14:48.523Z,13.50
2017-09-30T17:17:15.582Z,13.40
2017-09-30T17:19:41.884Z,13.50
2017-09-30T17:22:08.375Z,13.40
2017-09-30T17:24:34.814Z,13.40
2017-09-30T17:27:01.125Z,13.40
2017-09-30T17:29:27.423Z,13.40
2017-09-30T17:31:54.475Z,13.40
2017-09-30T17:34:21.829Z,13.40
2017-09-30T17:36:50.795Z,13.30
2017-09-30T17:39:17.944Z,13.40
2017-09-30T17:41:48.214Z,13.40
2017-09-30T17:44:14.721Z,13.40
2017-09-30T17:46:42.846Z,13.40
2017-09-30T17:49:10.777Z,13.40
2017-09-30T17:51:39.445Z,13.40
2017-09-30T17:54:08.365Z,13.40
2017-09-30T17:56:35.658Z,13.30
2017-09-30T17:59:04.358Z,13.30
2017-09-30T18:01:33.100Z,13.30
2017-09-30T18:04:01.800Z,13.30
2017-09-30T18:06:30.403Z,13.30
2017-09-30T18:09:00.166Z,13.30
2017-09-30T18:11:30.232Z,13.30
2017-09-30T18:13:59.352Z,13.30
2017-09-30T18:16:28.260Z,13.30
2017-09-30T18:18:57.312Z,13.30
2017-09-30T18:21:29.466Z,13.20
2017-09-30T18:24:01.609Z,13.20
2017-09-30T18:26:31.172Z,13.20
2017-09-30T18:28:59.377Z,13.20
2017-09-30T18:31:28.605Z,13.20
2017-09-30T18:33:57.609Z,13.20
2017-09-30T18:36:26.693Z,13.20
2017-09-30T18:38:55.963Z,13.10
2017-09-30T18:41:24.860Z,13.10
2017-09-30T18:43:53.823Z,13.10
2017-09-30T18:46:22.708Z,13.00
2017-09-30T18:48:52.815Z,13.00
2017-09-30T18:51:22.226Z,13.00
2017-09-30T18:53:51.454Z,13.00
2017-09-30T18:56:20.470Z,13.00
2017-09-30T18:58:49.000Z,13.00
2017-09-30T19:01:18.034Z,13.00
2017-09-30T19:03:46.997Z,13.00
2017-09-30T19:06:15.636Z,12.90
2017-09-30T19:08:44.836Z,13.00
2017-09-30T19:11:14.003Z,12.80
2017-09-30T19:13:43.394Z,12.80
2017-09-30T19:16:12.137Z,12.80
2017-09-30T19:18:40.681Z,12.80
2017-09-30T19:21:09.712Z,12.80
2017-09-30T19:23:39.320Z,12.80
2017-09-30T19:26:08.387Z,12.80
2017-09-30T19:28:38.041Z,12.80
2017-09-30T19:31:06.975Z,12.70
2017-09-30T19:33:35.877Z,12.70
2017-09-30T19:36:04.805Z,12.70
2017-09-30T19:38:34.498Z,12.50
2017-09-30T19:41:04.137Z,12.50
2017-09-30T19:43:33.367Z,12.50
2017-09-30T19:46:02.257Z,12.40
2017-09-30T19:48:30.908Z,12.40
2017-09-30T19:51:00.389Z,12.40
2017-09-30T19:53:29.691Z,12.40
2017-09-30T19:55:59.072Z,12.50
2017-09-30T19:58:27.875Z,12.50
2017-09-30T20:00:56.721Z,12.50
2017-09-30T20:03:26.413Z,12.50
2017-09-30T20:05:56.032Z,12.40
2017-09-30T20:08:25.188Z,12.40
2017-09-30T20:10:54.728Z,12.50
2017-09-30T20:13:23.968Z,12.40
2017-09-30T20:15:52.736Z,12.50
2017-09-30T20:18:21.902Z,12.50
2017-09-30T20:20:50.670Z,12.40
2017-09-30T20:23:19.767Z,12.50
2017-09-30T20:25:49.455Z,12.50
2017-09-30T20:28:18.538Z,12.40
2017-09-30T20:30:47.491Z,12.50
2017-09-30T20:33:16.384Z,12.50
2017-09-30T20:35:45.190Z,12.50
2017-09-30T20:38:14.087Z,12.40
2017-09-30T20:40:42.859Z,12.40
2017-09-30T20:43:11.887Z,12.30
2017-09-30T20:45:41.171Z,12.30
2017-09-30T20:48:10.420Z,12.20
2017-09-30T20:50:39.621Z,12.20
2017-09-30T20:53:08.620Z,12.30
2017-09-30T20:55:38.395Z,12.30
2017-09-30T20:58:07.375Z,12.30
2017-09-30T21:00:37.957Z,12.30
2017-09-30T21:03:06.524Z,12.30
2017-09-30T21:05:35.418Z,12.30
2017-09-30T21:08:04.514Z,12.30
2017-09-30T21:10:33.138Z,12.30
2017-09-30T21:13:02.457Z,12.30
2017-09-30T21:15:30.170Z,12.20
2017-09-30T21:17:59.288Z,12.20
2017-09-30T21:20:28.577Z,12.30
2017-09-30T21:22:58.719Z,12.30
2017-09-30T21:25:27.471Z,12.20
2017-09-30T21:27:56.313Z,12.20
2017-09-30T21:30:24.989Z,12.20
2017-09-30T21:32:52.901Z,12.30
2017-09-30T21:35:20.038Z,12.30
2017-09-30T21:37:46.484Z,12.20
2017-09-30T21:40:13.484Z,12.20
2017-09-30T21:42:42.154Z,12.20
2017-09-30T21:45:08.635Z,12.10
2017-09-30T21:47:34.966Z,12.10
2017-09-30T21:50:01.423Z,12.20
2017-09-30T21:52:28.108Z,12.10
2017-09-30T21:54:54.508Z,12.20
2017-09-30T21:57:21.798Z,12.20
2017-09-30T21:59:48.154Z,12.10
2017-09-30T22:02:14.424Z,12.10
2017-09-30T22:04:41.823Z,12.10
2017-09-30T22:07:08.134Z,12.20
2017-09-30T22:09:34.394Z,12.20
2017-09-30T22:12:00.670Z,12.20
2017-09-30T22:14:27.682Z,12.10
2017-09-30T22:16:54.978Z,12.10
2017-09-30T22:19:21.249Z,12.10
2017-09-30T22:21:48.278Z,12.00
2017-09-30T22:24:14.535Z,12.00
2017-09-30T22:26:40.811Z,11.90
2017-09-30T22:29:07.094Z,11.80
2017-09-30T22:31:33.362Z,11.80
2017-09-30T22:33:59.634Z,11.80
2017-09-30T22:36:26.667Z,11.70
2017-09-30T22:38:52.955Z,11.70
2017-09-30T22:41:19.237Z,11.60
2017-09-30T22:43:45.518Z,11.60
2017-09-30T22:46:11.781Z,11.60
2017-09-30T22:48:38.035Z,11.50
2017-09-30T22:51:05.066Z,11.50
2017-09-30T22:53:31.335Z,11.50
2017-09-30T22:55:57.602Z,11.50
2017-09-30T22:58:24.638Z,11.40
2017-09-30T23:00:50.885Z,11.40
2017-09-30T23:03:17.196Z,11.30
2017-09-30T23:05:43.465Z,11.30
2017-09-30T23:08:09.726Z,11.30
2017-09-30T23:10:36.001Z,11.20
2017-09-30T23:13:03.021Z,11.20
2017-09-30T23:15:29.325Z,11.10
2017-09-30T23:17:55.590Z,11.20
2017-09-30T23:20:21.873Z,11.20
2017-09-30T23:22:48.162Z,11.10
2017-09-30T23:25:14.427Z,11.10
2017-09-30T23:27:40.717Z,11.10
2017-09-30T23:30:06.970Z,11.00
2017-09-30T23:32:33.213Z,11.00
2017-09-30T23:34:59.506Z,11.00
2017-09-30T23:37:25.773Z,11.00
2017-09-30T23:39:52.034Z,10.90
2017-09-30T23:42:19.094Z,11.00
2017-09-30T23:44:45.367Z,10.90
2017-09-30T23:47:11.645Z,10.80
2017-09-30T23:49:38.658Z,10.70
2017-09-30T23:52:04.938Z,10.80
2017-09-30T23:54:31.203Z,10.70
2017-09-30T23:56:58.227Z,10.70
2017-09-30T23:59:24.549Z,10.70
